Time;durP1;ratioP1;P1;durP2;ratioP2;P2;SDS_P1;SDS_P2;PMS_P1;PMS_P2;Temp;Humidity;BMP_temperature;BMP_pressure;BME280_temperature;BME280_humidity;BME280_pressure;Samples;Min_cycle;Max_cycle;Signal;HPM_P1;HPM_P2
2023/10/13 00:02:07;;;;;;;11.25;6.90;;;17.20;99.90;;;;;;5034376;28;20135;-90
2023/10/13 00:04:37;;;;;;;9.25;6.18;;;17.20;99.90;;;;;;5052740;28;20056;-91
2023/10/13 00:07:08;;;;;;;10.38;5.97;;;17.20;99.90;;;;;;5025733;28;20467;-85
2023/10/13 00:09:39;;;;;;;9.65;6.18;;;17.20;99.90;;;;;;5060358;28;20066;-85
2023/10/13 00:12:13;;;;;;;10.52;6.72;;;17.20;99.90;;;;;;5055568;28;20161;-85
2023/10/13 00:14:41;;;;;;;12.27;6.50;;;17.20;99.90;;;;;;5059312;28;20044;-85
2023/10/13 00:17:15;;;;;;;7.82;5.75;;;17.20;99.90;;;;;;5065553;28;20094;-85
2023/10/13 00:19:46;;;;;;;9.10;6.18;;;17.20;99.90;;;;;;5041239;28;20049;-86
2023/10/13 00:22:19;;;;;;;7.93;5.50;;;17.20;99.90;;;;;;5023370;28;20044;-85
2023/10/13 00:24:47;;;;;;;9.45;5.53;;;17.20;99.90;;;;;;5031004;28;20135;-85
2023/10/13 00:27:29;;;;;;;8.40;5.18;;;17.20;99.90;;;;;;5055861;28;20143;-84
2023/10/13 00:32:59;;;;;;;7.13;4.63;;;17.20;99.90;;;;;;5042957;28;20018;-85
2023/10/13 00:35:29;;;;;;;6.93;4.63;;;17.20;99.90;;;;;;5043170;28;20088;-86
2023/10/13 00:38:03;;;;;;;7.53;4.43;;;17.20;99.90;;;;;;5063440;28;20044;-85
2023/10/13 00:45:57;;;;;;;8.30;4.10;;;17.20;99.90;;;;;;5072768;28;20076;-91
2023/10/13 00:48:37;;;;;;;9.50;4.90;;;17.20;99.90;;;;;;5059223;28;20052;-91
2023/10/13 00:51:06;;;;;;;7.57;4.00;;;17.20;99.90;;;;;;5062341;28;20044;-91
2023/10/13 00:53:39;;;;;;;8.15;4.00;;;17.20;99.90;;;;;;5036385;28;20132;-92
2023/10/13 00:56:09;;;;;;;7.35;4.07;;;17.20;99.90;;;;;;5036183;28;20184;-92
2023/10/13 00:58:40;;;;;;;7.70;4.68;;;17.20;99.90;;;;;;5049232;28;20037;-87
2023/10/13 01:01:21;;;;;;;8.23;4.50;;;17.20;99.90;;;;;;5061056;28;20032;-86
2023/10/13 01:04:12;;;;;;;8.77;4.18;;;17.20;99.90;;;;;;5062327;28;20563;-87
2023/10/13 01:06:40;;;;;;;8.30;4.82;;;17.20;99.90;;;;;;5060408;28;20075;-86
2023/10/13 01:09:18;;;;;;;7.97;4.28;;;17.20;99.90;;;;;;5055917;28;20198;-87
2023/10/13 01:11:54;;;;;;;6.00;4.03;;;17.20;99.90;;;;;;5053359;28;20051;-86
2023/10/13 01:14:27;;;;;;;6.75;4.30;;;17.20;99.90;;;;;;5047850;28;20105;-86
2023/10/13 01:16:57;;;;;;;7.95;4.47;;;17.20;99.90;;;;;;5057425;28;20041;-85
2023/10/13 01:19:24;;;;;;;6.75;4.28;;;17.20;99.90;;;;;;5071256;28;20040;-85
2023/10/13 01:22:02;;;;;;;7.50;4.57;;;17.20;99.90;;;;;;5066580;28;20044;-84
2023/10/13 01:24:37;;;;;;;6.45;4.28;;;17.20;99.90;;;;;;5038757;28;20098;-85
2023/10/13 01:27:17;;;;;;;5.85;3.95;;;17.20;99.90;;;;;;5053172;28;20052;-85
2023/10/13 01:29:50;;;;;;;7.13;5.28;;;17.20;99.90;;;;;;5054778;28;20048;-85
2023/10/13 01:32:24;;;;;;;7.68;5.18;;;17.20;99.90;;;;;;5080138;28;20060;-85
2023/10/13 01:34:55;;;;;;;10.70;5.72;;;17.20;99.90;;;;;;5062563;28;20051;-84
2023/10/13 01:37:23;;;;;;;7.55;5.00;;;17.20;99.90;;;;;;5045836;28;20056;-85
2023/10/13 01:39:50;;;;;;;10.18;6.05;;;17.20;99.90;;;;;;5064250;28;20389;-85
2023/10/13 01:42:21;;;;;;;8.80;5.32;;;17.20;99.90;;;;;;5051411;28;20063;-85
2023/10/13 01:44:49;;;;;;;8.60;5.10;;;17.20;99.90;;;;;;5047233;28;20036;-84
2023/10/13 01:47:17;;;;;;;6.75;4.30;;;17.20;99.90;;;;;;5068385;28;20135;-84
2023/10/13 01:49:47;;;;;;;6.82;4.70;;;17.20;99.90;;;;;;5075062;28;20146;-85
2023/10/13 01:52:18;;;;;;;7.78;4.65;;;17.20;99.90;;;;;;5065818;28;20048;-84
2023/10/13 01:54:46;;;;;;;8.07;4.35;;;17.20;99.90;;;;;;5056568;28;20052;-85
2023/10/13 01:57:14;;;;;;;8.93;5.22;;;17.20;99.90;;;;;;5070052;28;20069;-84
2023/10/13 01:59:44;;;;;;;8.20;4.43;;;17.20;99.90;;;;;;5062236;28;20559;-84
2023/10/13 02:02:30;;;;;;;6.85;4.43;;;17.20;99.90;;;;;;5078734;28;20044;-84
2023/10/13 02:05:00;;;;;;;7.35;4.63;;;17.20;99.90;;;;;;5052544;28;20051;-85
2023/10/13 02:07:34;;;;;;;6.18;4.00;;;17.20;99.90;;;;;;5070195;28;20101;-85
2023/10/13 02:10:16;;;;;;;8.20;3.80;;;17.20;99.90;;;;;;5072864;28;20044;-84
2023/10/13 02:12:44;;;;;;;6.07;4.05;;;17.20;99.90;;;;;;5052715;28;20048;-85
2023/10/13 02:15:25;;;;;;;6.95;4.35;;;17.10;99.90;;;;;;5074772;28;20060;-85
2023/10/13 02:17:54;;;;;;;6.60;4.80;;;17.20;99.90;;;;;;5048301;28;20048;-85
2023/10/13 02:20:25;;;;;;;6.32;4.60;;;17.20;99.90;;;;;;5056357;28;20040;-85
2023/10/13 02:22:52;;;;;;;6.38;4.68;;;17.20;99.90;;;;;;5048337;28;20040;-85
2023/10/13 02:25:35;;;;;;;7.13;4.47;;;17.20;99.90;;;;;;5024566;28;20099;-84
2023/10/13 02:28:08;;;;;;;5.55;3.80;;;17.20;99.90;;;;;;5051168;28;20077;-85
2023/10/13 02:30:48;;;;;;;5.43;3.08;;;17.20;99.90;;;;;;5055132;28;20049;-84
2023/10/13 02:33:25;;;;;;;7.25;3.92;;;17.20;99.90;;;;;;5053159;28;20040;-85
2023/10/13 02:35:56;;;;;;;7.78;4.55;;;17.10;99.90;;;;;;5048705;28;20082;-84
2023/10/13 02:38:57;;;;;;;6.82;3.80;;;17.10;99.90;;;;;;5065262;28;20471;-85
2023/10/13 02:41:25;;;;;;;10.32;5.13;;;17.10;99.90;;;;;;5059141;28;20044;-85
2023/10/13 02:43:53;;;;;;;9.55;4.40;;;17.10;99.90;;;;;;5049250;28;20040;-84
2023/10/13 02:46:21;;;;;;;5.43;3.78;;;17.10;99.90;;;;;;5068020;28;20049;-85
2023/10/13 02:48:53;;;;;;;6.40;3.60;;;17.10;99.90;;;;;;5064504;28;20044;-85
2023/10/13 02:51:25;;;;;;;4.70;2.93;;;17.10;99.90;;;;;;5047896;28;20045;-86
2023/10/13 02:53:52;;;;;;;5.30;3.03;;;17.10;99.90;;;;;;5040808;28;20305;-86
2023/10/13 02:56:22;;;;;;;4.82;2.95;;;17.10;99.90;;;;;;5039540;28;20503;-85
2023/10/13 02:59:05;;;;;;;6.10;3.92;;;17.10;99.90;;;;;;5035112;28;20044;-86
2023/10/13 03:01:38;;;;;;;6.53;3.60;;;17.10;99.90;;;;;;5071614;28;20048;-85
2023/10/13 03:04:08;;;;;;;4.75;2.55;;;17.10;99.90;;;;;;5045700;28;20044;-85
2023/10/13 03:06:39;;;;;;;7.25;3.17;;;17.10;99.90;;;;;;5057501;28;20135;-85
2023/10/13 03:09:17;;;;;;;5.00;2.80;;;17.10;99.90;;;;;;5040919;28;20088;-84
2023/10/13 03:11:49;;;;;;;5.25;3.33;;;17.00;99.90;;;;;;5055295;28;20044;-85
2023/10/13 03:17:08;;;;;;;5.63;3.20;;;17.00;99.90;;;;;;5067175;28;20055;-84
2023/10/13 03:19:39;;;;;;;6.03;3.38;;;17.00;99.90;;;;;;5048581;28;20131;-84
2023/10/13 03:22:11;;;;;;;5.20;2.63;;;17.00;99.90;;;;;;5052771;28;20048;-85
2023/10/13 03:24:45;;;;;;;4.82;2.75;;;17.00;99.90;;;;;;5031337;28;20053;-85
2023/10/13 03:27:38;;;;;;;;;;;17.00;99.90;;;;;;5048580;28;20134;-85
2023/10/13 03:30:10;;;;;;;;;;;17.00;99.90;;;;;;5047844;28;20057;-85
2023/10/13 03:32:43;;;;;;;;;;;16.90;99.90;;;;;;5044665;28;19926;-85
2023/10/13 03:35:17;;;;;;;4.22;2.33;;;16.90;99.90;;;;;;5063862;28;19943;-85
2023/10/13 03:37:44;;;;;;;4.78;2.00;;;16.90;99.90;;;;;;5062026;28;20048;-85
2023/10/13 03:45:47;;;;;;;3.97;1.70;;;16.90;99.90;;;;;;5079216;28;20412;-86
2023/10/13 03:51:06;;;;;;;3.13;1.88;;;16.90;99.90;;;;;;5049521;28;20063;-86
2023/10/13 03:53:35;;;;;;;5.43;2.85;;;17.00;99.90;;;;;;5035257;28;20139;-85
2023/10/13 03:56:21;;;;;;;6.03;2.38;;;16.90;99.90;;;;;;5054339;28;20136;-86
2023/10/13 03:58:53;;;;;;;5.45;2.33;;;17.00;99.90;;;;;;5039716;28;20044;-86
2023/10/13 04:01:31;;;;;;;5.75;2.78;;;17.00;99.90;;;;;;5056484;28;20135;-86
2023/10/13 04:04:11;;;;;;;4.90;3.17;;;17.00;99.90;;;;;;5039668;28;20048;-86
2023/10/13 04:17:33;;;;;;;8.00;4.68;;;17.00;99.90;;;;;;5052819;28;20049;-87
2023/10/13 04:25:38;;;;;;;6.43;3.85;;;17.00;99.90;;;;;;5078663;28;20044;-86
2023/10/13 04:33:35;;;;;;;7.82;3.63;;;17.00;99.90;;;;;;5080779;28;20048;-86
2023/10/13 04:49:49;;;;;;;5.93;3.15;;;17.00;99.90;;;;;;5055957;28;20523;-86
2023/10/13 04:52:50;;;;;;;7.60;3.47;;;17.00;99.90;;;;;;5035794;28;20064;-86
2023/10/13 04:56:52;;;;;;;7.32;3.58;;;17.00;99.90;;;;;;5036060;28;20041;-86
2023/10/13 04:58:14;;;;;;;6.30;3.42;;;17.00;99.90;;;;;;5038015;28;20051;-86
2023/10/13 05:01:23;;;;;;;7.38;4.18;;;17.00;99.90;;;;;;5054580;28;20043;-86
2023/10/13 05:46:20;;;;;;;8.95;5.35;;;17.60;99.90;;;;;;5056430;28;20446;-86
2023/10/13 05:51:46;;;;;;;7.30;4.80;;;17.60;99.90;;;;;;5056165;28;20075;-85
2023/10/13 06:30:12;;;;;;;6.90;3.40;;;17.70;99.90;;;;;;5071796;28;20052;-86
2023/10/13 06:32:42;;;;;;;6.93;3.45;;;17.70;99.90;;;;;;5039347;28;20045;-94
2023/10/13 06:35:24;;;;;;;5.28;2.97;;;17.70;99.90;;;;;;5022782;28;20080;-94
2023/10/13 06:37:51;;;;;;;3.97;2.60;;;17.80;99.90;;;;;;5018827;28;20057;-93
2023/10/13 06:42:54;;;;;;;4.78;2.05;;;17.80;99.90;;;;;;5035483;28;20146;-92
2023/10/13 06:45:21;;;;;;;6.32;3.13;;;17.80;99.90;;;;;;5019063;28;20508;-94
2023/10/13 06:47:53;;;;;;;4.18;2.58;;;17.80;99.90;;;;;;5035496;28;20128;-94
2023/10/13 06:50:24;;;;;;;4.57;2.20;;;17.90;99.90;;;;;;5019110;28;20103;-93
2023/10/13 06:52:54;;;;;;;4.97;2.80;;;17.90;99.90;;;;;;5035381;28;20045;-94
2023/10/13 06:55:34;;;;;;;5.18;3.20;;;17.90;99.90;;;;;;5019233;28;20042;-94
2023/10/13 06:58:02;;;;;;;4.15;2.63;;;17.90;99.90;;;;;;5018865;28;20516;-94
2023/10/13 07:00:33;;;;;;;6.70;2.88;;;17.90;99.90;;;;;;5034907;28;20077;-92
2023/10/13 07:03:08;;;;;;;5.07;2.90;;;17.90;99.90;;;;;;5018607;28;20045;-93
2023/10/13 07:05:41;;;;;;;4.68;2.83;;;17.90;99.90;;;;;;5035101;28;20136;-94
2023/10/13 07:08:13;;;;;;;4.68;2.53;;;18.00;99.90;;;;;;5018474;28;20037;-94
2023/10/13 07:11:13;;;;;;;3.75;2.08;;;18.00;99.90;;;;;;5034595;28;20624;-94
2023/10/13 07:13:47;;;;;;;4.25;2.53;;;18.00;99.90;;;;;;5034870;28;20396;-93
2023/10/13 07:16:15;;;;;;;4.90;2.33;;;17.90;99.90;;;;;;5034649;28;20069;-94
2023/10/13 07:18:55;;;;;;;7.68;2.95;;;18.00;99.90;;;;;;5020396;28;20052;-93
2023/10/13 07:21:31;;;;;;;5.00;3.00;;;18.00;99.90;;;;;;5034285;28;20046;-94
2023/10/13 07:24:08;;;;;;;4.72;2.90;;;18.00;99.90;;;;;;5020371;28;20083;-94
2023/10/13 07:26:42;;;;;;;4.15;2.90;;;18.00;99.90;;;;;;5051732;28;20041;-93
2023/10/13 07:29:15;;;;;;;10.43;4.35;;;18.00;99.90;;;;;;5007224;28;20045;-94
2023/10/13 07:31:44;;;;;;;7.93;4.07;;;18.00;99.90;;;;;;5057673;28;20045;-93
2023/10/13 07:34:26;;;;;;;6.85;4.03;;;18.00;99.90;;;;;;5041783;28;20046;-94
2023/10/13 07:36:59;;;;;;;6.43;3.17;;;18.00;99.90;;;;;;5043466;28;20124;-94
2023/10/13 07:39:40;;;;;;;6.68;3.60;;;18.00;99.90;;;;;;5019870;28;20049;-94
2023/10/13 07:42:19;;;;;;;6.45;3.05;;;18.00;99.90;;;;;;5035305;28;20144;-95
2023/10/13 07:44:49;;;;;;;5.20;2.80;;;18.00;99.90;;;;;;5034893;28;20046;-96
2023/10/13 07:47:20;;;;;;;4.90;2.40;;;18.10;99.90;;;;;;5018885;28;20045;-94
2023/10/13 07:49:50;;;;;;;6.70;3.17;;;18.00;99.90;;;;;;5034443;28;20045;-94
2023/10/13 07:52:36;;;;;;;5.35;3.30;;;18.00;99.90;;;;;;5018805;28;20053;-94
2023/10/13 07:55:21;;;;;;;5.43;3.10;;;18.00;99.90;;;;;;5004134;28;20099;-95
2023/10/13 07:58:03;;;;;;;;;;;;;;;;;;;;;
2023/10/13 08:09:40;;;;;;;6.20;2.83;;;18.10;99.90;;;;;;5054046;28;20041;-92
2023/10/13 08:12:11;;;;;;;7.55;3.75;;;18.10;99.90;;;;;;5041923;28;20466;-92
2023/10/13 08:14:45;;;;;;;7.30;3.25;;;18.10;99.90;;;;;;5041933;28;20144;-90
2023/10/13 08:17:17;;;;;;;10.75;4.25;;;18.20;99.90;;;;;;5036993;28;20044;-93
2023/10/13 08:19:46;;;;;;;9.13;3.95;;;18.20;99.90;;;;;;5036895;28;20045;-93
2023/10/13 08:35:22;;;;;;;5.90;3.35;;;18.50;99.90;;;;;;5076229;28;20123;-94
2023/10/13 09:24:38;;;;;;;6.45;2.95;;;19.50;99.90;;;;;;4905284;29;20096;-94
2023/10/13 09:27:15;;;;;;;7.60;3.58;;;19.50;99.80;;;;;;4892917;29;20070;-88
2023/10/13 09:33:55;;;;;;;8.27;3.40;;;19.50;99.60;;;;;;4905050;29;20048;-89
2023/10/13 09:36:29;;;;;;;7.35;4.00;;;19.40;99.70;;;;;;4900724;29;20478;-92
2023/10/13 09:39:29;;;;;;;9.65;4.07;;;19.40;99.70;;;;;;4900701;29;20096;-89
2023/10/13 09:42:10;;;;;;;7.78;4.28;;;19.40;99.60;;;;;;4895873;29;20052;-89
2023/10/13 09:44:49;;;;;;;7.70;4.22;;;19.40;99.60;;;;;;4902741;29;20056;-88
2023/10/13 09:47:29;;;;;;;6.97;3.60;;;19.40;99.50;;;;;;4919210;29;20477;-89
2023/10/13 09:50:14;;;;;;;8.70;4.00;;;19.40;99.50;;;;;;4915658;29;20056;-89
2023/10/13 09:52:45;;;;;;;6.22;3.85;;;19.40;99.50;;;;;;4903423;29;20048;-92
2023/10/13 09:55:19;;;;;;;8.13;3.85;;;19.40;99.60;;;;;;4901718;29;20052;-89
2023/10/13 09:58:20;;;;;;;5.88;3.78;;;19.40;99.50;;;;;;4880974;29;20090;-91
2023/10/13 10:01:31;;;;;;;7.43;3.58;;;19.50;99.40;;;;;;4899136;29;20058;-88
2023/10/13 10:04:45;;;;;;;5.72;3.30;;;19.50;99.30;;;;;;4901310;29;20044;-87
2023/10/13 10:07:04;;;;;;;5.57;3.25;;;19.60;99.30;;;;;;4907298;29;20052;-91
2023/10/13 10:13:38;;;;;;;6.88;3.30;;;19.60;99.20;;;;;;4898116;29;20056;-95
2023/10/13 10:16:22;;;;;;;8.43;3.88;;;19.60;99.10;;;;;;4913512;29;20044;-94
2023/10/13 10:19:01;;;;;;;6.97;3.20;;;19.70;99.00;;;;;;4905094;29;20096;-94
2023/10/13 10:22:23;;;;;;;11.68;3.92;;;19.70;98.90;;;;;;4912077;29;20099;-91
2023/10/13 10:25:02;;;;;;;7.15;2.97;;;19.80;98.80;;;;;;4905254;29;20052;-91
2023/10/13 10:27:31;;;;;;;9.23;3.35;;;19.80;98.80;;;;;;4905299;29;20069;-93
2023/10/13 10:30:03;;;;;;;6.65;2.30;;;19.80;98.80;;;;;;4916882;29;20044;-91
2023/10/13 10:32:35;;;;;;;;;;;19.80;98.70;;;;;;4925859;29;20048;-91
2023/10/13 10:35:20;;;;;;;10.60;3.87;;;19.80;98.70;;;;;;4938953;29;19922;-92
2023/10/13 10:37:50;;;;;;;6.90;3.70;;;19.80;98.40;;;;;;4922619;29;20051;-92
2023/10/13 10:40:41;;;;;;;8.23;3.78;;;19.80;98.50;;;;;;4913902;29;20052;-96
2023/10/13 10:43:11;;;;;;;6.75;3.33;;;19.70;98.50;;;;;;4888629;29;20052;-94
2023/10/13 10:46:01;;;;;;;5.72;3.42;;;19.70;98.50;;;;;;4896082;29;20044;-93
2023/10/13 10:48:34;;;;;;;4.18;2.97;;;19.70;98.50;;;;;;4916678;29;20465;-90
2023/10/13 10:51:21;;;;;;;7.78;3.33;;;19.80;98.40;;;;;;4889518;29;20052;-90
2023/10/13 10:54:11;;;;;;;8.77;4.20;;;20.00;98.10;;;;;;4911276;29;20500;-86
2023/10/13 10:56:41;;;;;;;9.52;4.20;;;20.00;98.00;;;;;;4916775;29;20076;-84
2023/10/13 10:59:37;;;;;;;;;;;;;;;;;;;;;
2023/10/13 11:03:16;;;;;;;7.03;3.88;;;20.10;97.90;;;;;;4918120;29;20044;-88
2023/10/13 11:06:54;;;;;;;9.77;3.78;;;20.10;97.70;;;;;;4851112;29;20044;-87
2023/10/13 11:13:53;;;;;;;9.63;3.45;;;20.30;97.50;;;;;;4835564;29;20049;-89
2023/10/13 11:16:34;;;;;;;9.32;4.60;;;20.40;97.30;;;;;;4848903;29;20081;-88
2023/10/13 11:19:47;;;;;;;6.22;3.40;;;20.40;97.10;;;;;;4867008;29;20053;-88
2023/10/13 11:22:32;;;;;;;6.63;3.90;;;20.50;97.10;;;;;;4866803;29;20040;-90
2023/10/13 11:37:59;;;;;;;7.65;3.72;;;20.30;97.00;;;;;;4860433;29;20144;-96
2023/10/13 11:43:17;;;;;;;10.77;4.43;;;20.20;96.70;;;;;;4884499;29;20064;-91
2023/10/13 11:48:43;;;;;;;6.10;3.30;;;20.30;96.50;;;;;;4902159;29;20107;-93
2023/10/13 11:51:33;;;;;;;;;;;20.40;96.50;;;;;;4893442;29;20112;-95
2023/10/13 11:54:00;;;;;;;10.32;4.50;;;20.40;95.60;;;;;;4903611;29;19934;-90
2023/10/13 11:57:10;;;;;;;14.63;5.50;;;20.50;95.30;;;;;;4903869;29;20080;-94
2023/10/13 12:12:26;;;;;;;8.07;4.73;;;20.80;94.30;;;;;;4902243;29;20146;-96
2023/10/13 12:19:39;;;;;;;8.82;4.63;;;21.10;93.60;;;;;;4915309;29;20028;-95
2023/10/13 12:22:16;;;;;;;8.93;3.88;;;21.20;93.50;;;;;;4904614;29;20091;-94
2023/10/13 12:28:50;;;;;;;7.32;3.70;;;21.30;93.70;;;;;;4874827;29;20059;-90
2023/10/13 12:31:26;;;;;;;7.22;3.63;;;21.20;93.60;;;;;;4898522;29;20520;-89
2023/10/13 12:49:15;;;;;;;9.75;4.05;;;21.30;93.00;;;;;;4894899;29;20057;-87
2023/10/13 12:51:51;;;;;;;6.93;3.90;;;21.40;92.70;;;;;;4897640;29;20052;-86
2023/10/13 12:54:24;;;;;;;9.73;4.43;;;21.40;92.80;;;;;;4897943;29;20045;-86
2023/10/13 12:56:56;;;;;;;10.80;4.57;;;21.40;92.30;;;;;;4897080;29;20049;-86
2023/10/13 12:59:41;;;;;;;8.63;4.35;;;21.40;92.50;;;;;;4882391;29;20057;-90
2023/10/13 13:02:14;;;;;;;7.68;3.85;;;21.40;92.60;;;;;;4897640;29;20044;-86
2023/10/13 13:05:13;;;;;;;9.70;4.10;;;21.40;92.50;;;;;;4888306;29;20538;-89
2023/10/13 13:07:59;;;;;;;8.73;4.28;;;21.40;92.40;;;;;;4894281;29;20056;-87
2023/10/13 13:10:35;;;;;;;7.53;4.22;;;21.40;92.30;;;;;;4893047;29;20083;-89
2023/10/13 13:13:05;;;;;;;7.35;3.25;;;21.40;92.30;;;;;;4899248;29;20104;-90
2023/10/13 13:15:35;;;;;;;9.60;3.55;;;21.40;92.40;;;;;;4885758;29;20090;-90
2023/10/13 13:18:09;;;;;;;7.13;3.38;;;21.40;92.50;;;;;;4884365;29;20072;-94
2023/10/13 13:20:39;;;;;;;7.38;3.40;;;21.40;92.50;;;;;;4900547;29;20147;-89
2023/10/13 13:23:12;;;;;;;9.23;3.85;;;21.30;92.40;;;;;;4907354;29;20109;-90
2023/10/13 13:25:48;;;;;;;10.18;5.10;;;21.30;92.10;;;;;;4899815;29;20053;-89
2023/10/13 13:28:19;;;;;;;9.55;4.43;;;21.40;91.80;;;;;;4906564;29;20093;-93
2023/10/13 13:30:54;;;;;;;8.50;3.10;;;21.40;91.80;;;;;;4900613;29;20066;-91
2023/10/13 13:33:25;;;;;;;8.02;3.72;;;21.40;91.90;;;;;;4921688;29;20131;-91
2023/10/13 13:36:02;;;;;;;7.72;3.90;;;21.30;92.00;;;;;;4893643;29;20081;-93
2023/10/13 13:39:27;;;;;;;8.30;3.20;;;21.30;92.00;;;;;;4908358;29;20067;-93
2023/10/13 13:41:58;;;;;;;6.32;2.83;;;21.30;92.20;;;;;;4922121;29;20049;-92
2023/10/13 13:44:58;;;;;;;9.18;3.47;;;21.10;92.50;;;;;;4921278;29;20116;-92
2023/10/13 13:47:26;;;;;;;9.00;3.60;;;21.10;92.50;;;;;;4891044;29;20053;-90
2023/10/13 13:50:05;;;;;;;10.57;4.75;;;21.10;92.20;;;;;;4923048;29;20107;-94
2023/10/13 13:52:45;;;;;;;13.32;4.63;;;21.10;92.10;;;;;;4926075;29;20072;-92
2023/10/13 13:55:34;;;;;;;11.40;4.70;;;21.00;91.90;;;;;;4927010;29;20062;-92
2023/10/13 13:58:04;;;;;;;9.93;4.45;;;21.00;91.70;;;;;;4943734;29;20047;-94
2023/10/13 14:00:48;;;;;;;9.60;3.78;;;20.90;91.80;;;;;;4928421;29;20048;-91
2023/10/13 14:03:32;;;;;;;9.63;4.40;;;20.90;91.90;;;;;;4941404;29;20377;-95
2023/10/13 14:06:18;;;;;;;7.55;3.10;;;20.80;92.20;;;;;;4910080;29;20048;-95
2023/10/13 14:08:56;;;;;;;7.10;3.47;;;20.70;92.20;;;;;;4934347;29;20040;-90
2023/10/13 14:14:28;;;;;;;8.88;3.63;;;20.70;91.90;;;;;;4927796;29;20051;-90
2023/10/13 14:17:10;;;;;;;9.60;3.65;;;20.70;92.10;;;;;;4933757;29;20073;-91
2023/10/13 14:19:40;;;;;;;6.32;3.05;;;20.70;92.10;;;;;;4892154;29;20428;-89
2023/10/13 14:22:11;;;;;;;6.22;3.25;;;20.60;92.20;;;;;;4904958;29;20069;-93
2023/10/13 14:24:43;;;;;;;8.38;3.33;;;20.60;92.40;;;;;;4891796;29;20431;-93
2023/10/13 14:27:23;;;;;;;8.63;3.88;;;20.50;92.20;;;;;;4910625;29;20074;-92
2023/10/13 14:29:53;;;;;;;7.15;3.63;;;20.40;92.30;;;;;;4893576;29;20109;-91
2023/10/13 14:32:28;;;;;;;8.88;3.60;;;20.30;92.50;;;;;;4903316;29;20044;-89
2023/10/13 14:35:18;;;;;;;7.65;3.50;;;20.10;92.80;;;;;;4902933;29;20144;-87
2023/10/13 14:37:47;;;;;;;10.23;3.10;;;20.00;93.00;;;;;;4901625;29;20049;-89
2023/10/13 14:40:23;;;;;;;9.40;3.40;;;20.00;93.00;;;;;;4905456;29;20052;-89
2023/10/13 14:42:53;;;;;;;13.88;3.95;;;20.10;92.90;;;;;;4888272;29;20079;-85
2023/10/13 14:45:21;;;;;;;7.90;3.63;;;20.00;93.00;;;;;;4900047;29;20056;-89
2023/10/13 14:48:25;;;;;;;8.70;4.40;;;20.00;93.00;;;;;;4900059;29;20056;-96
2023/10/13 14:51:13;;;;;;;11.27;4.43;;;20.00;92.80;;;;;;4882281;29;20522;-94
2023/10/13 14:53:55;;;;;;;8.75;3.80;;;19.90;92.80;;;;;;4898288;29;20059;-92
2023/10/13 14:56:28;;;;;;;10.20;3.92;;;19.80;93.10;;;;;;4869416;29;20517;-90
2023/10/13 14:58:55;;;;;;;9.30;4.25;;;19.70;93.20;;;;;;4899944;29;20146;-90
2023/10/13 15:01:26;;;;;;;8.77;3.53;;;19.70;93.30;;;;;;4884423;29;20514;-88
2023/10/13 15:03:58;;;;;;;11.65;4.03;;;19.70;93.50;;;;;;4899412;29;20052;-86
2023/10/13 15:06:30;;;;;;;8.45;4.07;;;19.60;93.60;;;;;;4899085;29;20151;-87
2023/10/13 15:09:03;;;;;;;7.80;4.10;;;19.70;93.50;;;;;;4887260;29;20049;-90
2023/10/13 15:11:37;;;;;;;10.45;4.35;;;19.70;93.50;;;;;;4888494;29;20103;-86
2023/10/13 15:14:15;;;;;;;10.10;3.60;;;19.80;93.30;;;;;;4896990;29;20057;-90
2023/10/13 15:16:43;;;;;;;8.80;3.65;;;19.80;93.30;;;;;;4885141;29;20395;-89
2023/10/13 15:19:12;;;;;;;6.35;3.50;;;19.80;93.40;;;;;;4900190;29;20056;-86
2023/10/13 15:21:47;;;;;;;7.00;2.92;;;19.80;93.50;;;;;;4895990;29;20047;-89
2023/10/13 15:24:16;;;;;;;11.23;4.68;;;19.70;93.60;;;;;;4897796;29;20049;-87
2023/10/13 15:27:02;;;;;;;8.02;3.75;;;19.70;93.70;;;;;;4907570;29;20059;-85
2023/10/13 15:29:35;;;;;;;9.25;3.65;;;19.60;93.70;;;;;;4916919;29;20040;-87
2023/10/13 15:34:45;;;;;;;7.15;3.22;;;19.40;94.10;;;;;;4909979;29;20059;-88
2023/10/13 15:37:12;;;;;;;9.00;3.22;;;19.30;94.40;;;;;;4890857;29;20139;-86
2023/10/13 15:39:39;;;;;;;8.60;4.10;;;19.20;94.60;;;;;;4901369;29;20048;-85
2023/10/13 15:42:06;;;;;;;6.30;3.10;;;19.10;94.70;;;;;;4900920;29;20047;-86
2023/10/13 15:44:35;;;;;;;8.52;4.38;;;19.00;95.00;;;;;;4916705;29;20048;-85
2023/10/13 15:47:02;;;;;;;8.10;4.32;;;18.90;95.10;;;;;;4896767;29;20082;-85
2023/10/13 15:50:20;;;;;;;9.82;4.55;;;18.90;95.30;;;;;;4914855;29;20048;-95
2023/10/13 15:53:01;;;;;;;8.95;3.55;;;18.80;95.40;;;;;;4914310;29;20091;-88
2023/10/13 15:55:36;;;;;;;9.18;3.63;;;18.80;95.50;;;;;;4898322;29;20053;-89
2023/10/13 15:58:10;;;;;;;4.93;2.28;;;18.80;95.60;;;;;;4895036;29;20044;-91
2023/10/13 16:01:26;;;;;;;6.22;2.33;;;18.80;95.70;;;;;;4907101;29;20512;-91
2023/10/13 16:03:55;;;;;;;4.82;2.00;;;18.80;95.80;;;;;;4907921;29;20044;-92
2023/10/13 16:11:16;;;;;;;4.40;1.95;;;18.70;95.90;;;;;;4788115;29;20115;-90
2023/10/13 16:13:54;;;;;;;4.70;1.67;;;18.60;96.00;;;;;;4799039;29;20053;-93
2023/10/13 16:16:34;;;;;;;5.00;1.83;;;18.60;96.10;;;;;;4907587;29;20043;-93
2023/10/13 16:19:06;;;;;;;;;;;18.60;96.10;;;;;;4905574;29;20048;-86
2023/10/13 16:22:25;;;;;;;;;;;;;;;;;;;;;
2023/10/13 16:38:50;;;;;;;7.47;2.60;;;18.70;96.10;;;;;;4918735;29;20381;-90
2023/10/13 16:41:22;;;;;;;7.65;2.17;;;18.70;96.10;;;;;;4901540;29;20059;-90
2023/10/13 16:43:52;;;;;;;6.82;2.67;;;18.70;96.10;;;;;;4895059;29;20048;-90
2023/10/13 16:46:33;;;;;;;6.10;2.47;;;18.70;96.10;;;;;;4901454;29;20044;-93
2023/10/13 16:49:30;;;;;;;5.60;3.30;;;18.80;96.10;;;;;;4896026;29;20047;-90
2023/10/13 16:52:00;;;;;;;4.80;2.97;;;18.80;96.10;;;;;;4882411;29;20115;-86
2023/10/13 16:54:27;;;;;;;6.30;2.47;;;18.80;96.10;;;;;;4898416;29;20048;-87
2023/10/13 16:57:00;;;;;;;7.60;2.92;;;18.80;96.00;;;;;;4917883;29;20104;-88
2023/10/13 16:59:28;;;;;;;6.63;2.92;;;18.90;95.90;;;;;;4912271;29;20052;-89
2023/10/13 17:01:57;;;;;;;10.68;3.15;;;18.90;95.80;;;;;;4905562;29;20163;-89
2023/10/13 17:04:25;;;;;;;7.72;3.58;;;18.90;95.70;;;;;;4911214;29;20063;-85
2023/10/13 17:06:54;;;;;;;6.60;3.50;;;19.00;95.70;;;;;;4908239;29;20088;-91
2023/10/13 17:09:22;;;;;;;8.00;3.53;;;19.00;95.70;;;;;;4921339;29;20048;-87
2023/10/13 17:11:50;;;;;;;5.07;2.72;;;19.00;95.70;;;;;;4922679;29;20052;-87
2023/10/13 17:14:19;;;;;;;6.75;3.10;;;19.00;95.70;;;;;;4915865;29;20062;-87
2023/10/13 17:16:48;;;;;;;6.57;3.25;;;19.00;95.70;;;;;;4904918;29;20052;-88
2023/10/13 17:19:24;;;;;;;5.93;2.60;;;19.00;95.70;;;;;;4900693;29;20060;-90
2023/10/13 17:21:51;;;;;;;7.70;3.40;;;18.90;95.70;;;;;;4904772;29;20044;-91
2023/10/13 17:24:24;;;;;;;7.90;4.07;;;18.90;95.70;;;;;;4901080;29;20050;-86
2023/10/13 17:26:55;;;;;;;12.82;5.43;;;18.80;95.80;;;;;;4904280;29;20075;-91
2023/10/13 17:29:35;;;;;;;8.45;4.35;;;18.70;96.00;;;;;;4904678;29;20044;-92
2023/10/13 17:32:16;;;;;;;9.32;4.25;;;18.50;96.20;;;;;;4906409;29;20058;-93
2023/10/13 17:35:34;;;;;;;10.90;4.20;;;18.30;96.50;;;;;;4895084;29;20051;-91
2023/10/13 17:38:58;;;;;;;7.45;4.03;;;18.20;96.70;;;;;;4908035;29;20078;-95
2023/10/13 17:41:51;;;;;;;11.98;5.18;;;18.10;97.00;;;;;;4882096;29;20058;-92
2023/10/13 17:44:27;;;;;;;8.60;4.70;;;18.00;97.20;;;;;;4905171;29;20044;-96
2023/10/13 17:47:15;;;;;;;7.63;4.10;;;17.90;97.40;;;;;;4909893;29;20094;-94
2023/10/13 17:49:45;;;;;;;8.68;3.85;;;17.90;97.40;;;;;;4906061;29;20056;-92
2023/10/13 17:52:12;;;;;;;8.27;4.18;;;17.90;97.50;;;;;;4899715;29;20136;-90
2023/10/13 17:54:40;;;;;;;10.73;4.40;;;17.90;97.60;;;;;;4906688;29;20044;-93
2023/10/13 17:57:08;;;;;;;8.70;4.95;;;17.80;97.60;;;;;;4885192;29;20048;-91
2023/10/13 17:59:49;;;;;;;11.52;6.50;;;17.80;97.80;;;;;;4887699;29;20461;-88
2023/10/13 18:02:17;;;;;;;11.27;5.88;;;17.70;97.90;;;;;;4903808;29;20052;-91
2023/10/13 18:04:44;;;;;;;11.30;5.90;;;17.70;98.10;;;;;;4903631;29;20512;-88
2023/10/13 18:07:16;;;;;;;15.15;7.25;;;17.70;98.40;;;;;;4913934;29;20094;-90
2023/10/13 18:09:46;;;;;;;11.82;7.60;;;17.60;98.60;;;;;;4923242;29;20064;-89
2023/10/13 18:12:15;;;;;;;12.10;6.25;;;17.60;98.80;;;;;;4917426;29;20100;-92
2023/10/13 18:15:13;;;;;;;9.73;5.82;;;17.60;98.90;;;;;;4904444;29;20072;-95
2023/10/13 18:22:06;;;;;;;8.45;5.38;;;17.60;98.70;;;;;;4902206;29;20146;-89
2023/10/13 18:24:35;;;;;;;10.43;6.15;;;17.60;98.70;;;;;;4897580;29;20072;-90
2023/10/13 18:27:05;;;;;;;11.02;6.57;;;17.60;98.90;;;;;;4921002;29;20083;-90
2023/10/13 18:29:36;;;;;;;11.35;5.60;;;17.60;99.00;;;;;;4907053;29;20052;-89
2023/10/13 18:32:17;;;;;;;9.80;5.07;;;17.50;98.90;;;;;;4890586;29;20057;-94
2023/10/13 18:34:54;;;;;;;13.45;6.07;;;17.60;99.00;;;;;;4911084;29;20056;-88
2023/10/13 18:37:21;;;;;;;7.50;4.82;;;17.50;99.00;;;;;;4913673;29;20053;-88
2023/10/13 18:39:48;;;;;;;7.93;4.38;;;17.60;99.00;;;;;;4907156;29;20529;-86
2023/10/13 18:42:16;;;;;;;8.23;4.50;;;17.60;99.00;;;;;;4902241;29;20045;-87
2023/10/13 18:44:43;;;;;;;6.10;4.22;;;17.60;99.10;;;;;;4899717;29;20059;-87